Time;durP1;ratioP1;P1;durP2;ratioP2;P2;SDS_P1;SDS_P2;PMS_P1;PMS_P2;Temp;Humidity;BMP_temperature;BMP_pressure;BME280_temperature;BME280_humidity;BME280_pressure;Samples;Min_cycle;Max_cycle;Signal;HPM_P1;HPM_P2
2022/07/14 00:02:08;;;;;;;7.25;3.20;;;;;;;;;;5018682;28;20025;-76
2022/07/14 00:04:35;;;;;;;7.00;3.30;;;;;;;;;;5017885;28;20029;-76
2022/07/14 00:07:01;;;;;;;5.60;4.22;;;;;;;;;;5017162;28;20112;-75
2022/07/14 00:09:27;;;;;;;11.15;4.68;;;;;;;;;;5018386;28;20021;-76
2022/07/14 00:11:53;;;;;;;6.97;3.20;;;;;;;;;;5016644;28;20057;-75
2022/07/14 00:14:19;;;;;;;5.38;3.65;;;;;;;;;;5015775;28;20140;-75
2022/07/14 00:16:45;;;;;;;8.35;3.35;;;;;;;;;;5018150;28;20025;-75
2022/07/14 00:19:12;;;;;;;7.88;3.88;;;;;;;;;;5017719;28;20491;-76
2022/07/14 00:21:38;;;;;;;8.00;3.20;;;;;;;;;;5014434;28;20033;-75
2022/07/14 00:24:04;;;;;;;8.30;3.42;;;;;;;;;;5017161;28;20067;-75
2022/07/14 00:26:30;;;;;;;6.80;3.00;;;;;;;;;;5018286;28;20498;-75
2022/07/14 00:28:56;;;;;;;9.15;3.75;;;;;;;;;;5016977;28;20053;-76
2022/07/14 00:31:22;;;;;;;5.47;3.33;;;;;;;;;;5018164;28;20044;-76
2022/07/14 00:33:48;;;;;;;8.15;3.40;;;;;;;;;;5015710;28;20550;-76
2022/07/14 00:36:14;;;;;;;7.25;3.50;;;;;;;;;;5017668;28;20029;-75
2022/07/14 00:38:41;;;;;;;9.80;3.00;;;;;;;;;;5016104;28;20091;-77
2022/07/14 00:41:07;;;;;;;7.50;3.13;;;;;;;;;;5015934;28;20104;-77
2022/07/14 00:43:33;;;;;;;5.32;2.80;;;;;;;;;;5017870;28;20554;-75
2022/07/14 00:45:59;;;;;;;4.70;2.83;;;;;;;;;;5018040;28;20495;-75
2022/07/14 00:48:27;;;;;;;12.13;3.35;;;;;;;;;;5017912;28;20033;-75
2022/07/14 00:50:53;;;;;;;6.63;3.00;;;;;;;;;;5012500;28;20575;-76
2022/07/14 00:53:19;;;;;;;8.70;3.35;;;;;;;;;;5015106;28;20552;-76
2022/07/14 00:55:46;;;;;;;6.65;3.33;;;;;;;;;;5017180;28;20029;-75
2022/07/14 00:58:12;;;;;;;5.03;2.95;;;;;;;;;;5015469;28;20715;-76
2022/07/14 01:00:38;;;;;;;6.38;3.28;;;;;;;;;;5019215;28;20048;-76
2022/07/14 01:03:05;;;;;;;6.85;3.10;;;;;;;;;;5016994;28;20037;-75
2022/07/14 01:05:31;;;;;;;7.63;4.95;;;;;;;;;;5016809;28;20120;-75
2022/07/14 01:07:57;;;;;;;9.05;3.22;;;;;;;;;;5017619;28;20053;-77
2022/07/14 01:10:23;;;;;;;9.20;2.90;;;;;;;;;;5016129;28;20029;-76
2022/07/14 01:12:50;;;;;;;4.85;3.15;;;;;;;;;;5016371;28;20029;-76
2022/07/14 01:15:19;;;;;;;6.78;3.65;;;;;;;;;;5015749;28;20533;-76
2022/07/14 01:17:47;;;;;;;8.63;3.00;;;;;;;;;;5016867;28;20095;-76
2022/07/14 01:20:13;;;;;;;8.63;3.00;;;;;;;;;;5016566;28;20029;-76
2022/07/14 01:22:39;;;;;;;6.60;3.78;;;;;;;;;;5016414;28;20060;-76
2022/07/14 01:25:07;;;;;;;8.38;3.10;;;;;;;;;;5015032;28;20034;-76
2022/07/14 01:27:36;;;;;;;6.25;2.88;;;;;;;;;;5012292;28;21019;-76
2022/07/14 01:30:03;;;;;;;6.75;2.80;;;;;;;;;;5014781;28;20025;-75
2022/07/14 01:32:29;;;;;;;4.95;2.50;;;;;;;;;;5015703;28;20395;-77
2022/07/14 01:34:56;;;;;;;10.45;3.20;;;;;;;;;;5017978;28;20056;-76
2022/07/14 01:37:22;;;;;;;4.63;2.80;;;;;;;;;;5020812;28;20017;-74
2022/07/14 01:39:48;;;;;;;9.73;3.08;;;;;;;;;;5024391;28;20075;-75
2022/07/14 01:42:14;;;;;;;8.13;3.65;;;;;;;;;;5023632;28;20402;-75
2022/07/14 01:44:43;;;;;;;6.97;3.22;;;;;;;;;;5025598;28;20055;-75
2022/07/14 01:47:10;;;;;;;5.18;3.17;;;;;;;;;;5012384;28;20026;-76
2022/07/14 01:49:36;;;;;;;4.78;2.80;;;;;;;;;;5019735;28;20030;-75
2022/07/14 01:52:03;;;;;;;8.10;3.00;;;;;;;;;;5023500;28;20037;-75
2022/07/14 01:54:29;;;;;;;9.70;2.90;;;;;;;;;;5018229;28;20029;-75
2022/07/14 01:56:56;;;;;;;6.15;3.20;;;;;;;;;;5022242;28;20033;-74
2022/07/14 01:59:22;;;;;;;3.88;3.10;;;;;;;;;;5020828;28;20108;-74
2022/07/14 02:01:48;;;;;;;4.35;3.15;;;;;;;;;;5022561;28;20075;-75
2022/07/14 02:04:15;;;;;;;4.38;3.28;;;;;;;;;;5020068;28;20029;-75
2022/07/14 02:06:42;;;;;;;10.48;3.35;;;;;;;;;;5021588;28;20021;-75
2022/07/14 02:09:08;;;;;;;9.40;3.00;;;;;;;;;;5021639;28;20479;-76
2022/07/14 02:14:20;;;;;;;9.40;3.17;;;;;;;;;;5016917;28;20028;-76
2022/07/14 02:16:46;;;;;;;5.70;2.85;;;;;;;;;;5017633;28;20107;-76
2022/07/14 02:19:15;;;;;;;8.07;3.22;;;;;;;;;;5020249;28;20032;-76
2022/07/14 02:21:42;;;;;;;5.93;2.80;;;;;;;;;;5024360;28;20017;-75
2022/07/14 02:24:08;;;;;;;5.55;2.67;;;;;;;;;;5024023;28;20473;-75
2022/07/14 02:26:35;;;;;;;7.10;3.40;;;;;;;;;;5021792;28;20445;-76
2022/07/14 02:29:01;;;;;;;3.95;2.83;;;;;;;;;;5021522;28;20041;-76
2022/07/14 02:31:27;;;;;;;9.57;2.83;;;;;;;;;;5024705;28;20017;-76
2022/07/14 02:33:54;;;;;;;5.13;3.10;;;;;;;;;;5028551;28;20549;-76
2022/07/14 02:36:20;;;;;;;5.43;2.80;;;;;;;;;;5026409;28;20030;-75
2022/07/14 02:38:46;;;;;;;3.88;2.97;;;;;;;;;;5027092;28;20012;-76
2022/07/14 02:41:13;;;;;;;4.90;2.70;;;;;;;;;;5027579;28;20130;-76
2022/07/14 02:43:39;;;;;;;6.70;3.13;;;;;;;;;;5026050;28;20348;-76
2022/07/14 02:46:05;;;;;;;10.43;3.13;;;;;;;;;;5021889;28;20063;-76
2022/07/14 02:48:31;;;;;;;7.30;3.22;;;;;;;;;;5016895;28;20026;-75
2022/07/14 02:51:15;;;;;;;7.20;3.13;;;;;;;;;;5013952;28;20471;-75
2022/07/14 02:53:41;;;;;;;7.18;2.90;;;;;;;;;;5025288;28;20379;-74
2022/07/14 02:56:07;;;;;;;9.73;3.13;;;;;;;;;;5033756;28;20036;-76
2022/07/14 02:58:34;;;;;;;7.18;2.88;;;;;;;;;;5033976;28;20048;-74
2022/07/14 03:01:01;;;;;;;9.55;3.08;;;;;;;;;;5033005;28;20140;-75
2022/07/14 03:03:27;;;;;;;9.13;3.22;;;;;;;;;;5034988;28;20036;-75
2022/07/14 03:05:53;;;;;;;11.05;4.07;;;;;;;;;;5028951;28;20126;-75
2022/07/14 03:08:19;;;;;;;8.70;3.58;;;;;;;;;;5030013;28;20163;-75
2022/07/14 03:10:45;;;;;;;8.98;3.53;;;;;;;;;;5026788;28;20021;-76
2022/07/14 03:13:12;;;;;;;7.43;3.17;;;;;;;;;;5027014;28;20032;-76
2022/07/14 03:15:38;;;;;;;6.03;3.92;;;;;;;;;;5030647;28;20120;-76
2022/07/14 03:18:04;;;;;;;9.65;3.35;;;;;;;;;;5030906;28;20030;-76
2022/07/14 03:20:30;;;;;;;8.32;3.05;;;;;;;;;;5028408;28;20021;-75
2022/07/14 03:22:56;;;;;;;7.05;3.00;;;;;;;;;;5029788;28;20054;-76
2022/07/14 03:25:23;;;;;;;9.75;3.28;;;;;;;;;;5027845;28;20030;-75
2022/07/14 03:27:49;;;;;;;7.00;2.97;;;;;;;;;;5028333;28;20041;-76
2022/07/14 03:30:16;;;;;;;8.05;3.38;;;;;;;;;;5027706;28;20033;-76
2022/07/14 03:32:42;;;;;;;8.10;3.67;;;;;;;;;;5029988;28;20037;-77
2022/07/14 03:35:12;;;;;;;11.75;3.47;;;;;;;;;;5030777;28;20087;-75
2022/07/14 03:37:38;;;;;;;7.18;2.95;;;;;;;;;;5028692;28;20526;-76
2022/07/14 03:40:04;;;;;;;5.85;3.03;;;;;;;;;;5032849;28;20056;-76
2022/07/14 03:42:30;;;;;;;9.88;3.30;;;;;;;;;;5031836;28;20091;-75
2022/07/14 03:44:57;;;;;;;7.75;3.05;;;;;;;;;;5032163;28;20097;-76
2022/07/14 03:47:23;;;;;;;4.80;3.10;;;;;;;;;;5029785;28;20097;-76
2022/07/14 03:49:49;;;;;;;7.50;2.78;;;;;;;;;;5029721;28;20026;-76
2022/07/14 03:52:15;;;;;;;10.85;3.75;;;;;;;;;;5028283;28;20064;-76
2022/07/14 03:54:44;;;;;;;8.95;3.75;;;;;;;;;;5029308;28;20051;-76
2022/07/14 03:57:14;;;;;;;5.57;3.22;;;;;;;;;;5029598;28;20040;-76
2022/07/14 03:59:40;;;;;;;6.30;3.08;;;;;;;;;;5029750;28;20048;-76
2022/07/14 04:02:10;;;;;;;7.57;3.20;;;;;;;;;;5033220;28;20045;-76
2022/07/14 04:04:36;;;;;;;9.63;3.58;;;;;;;;;;5027742;28;21056;-76
2022/07/14 04:07:02;;;;;;;7.72;3.20;;;;;;;;;;5029555;28;20042;-76
2022/07/14 04:09:28;;;;;;;8.55;3.40;;;;;;;;;;5029831;28;20021;-76
2022/07/14 04:11:54;;;;;;;6.88;3.20;;;;;;;;;;5026019;28;20635;-75
2022/07/14 04:14:20;;;;;;;6.85;3.40;;;;;;;;;;5028438;28;20018;-76
2022/07/14 04:16:47;;;;;;;8.10;3.58;;;;;;;;;;5027576;28;20333;-76
2022/07/14 04:19:14;;;;;;;6.40;2.92;;;;;;;;;;5028848;28;20034;-75
2022/07/14 04:21:40;;;;;;;7.15;3.45;;;;;;;;;;5024892;28;20029;-74
2022/07/14 04:24:06;;;;;;;10.73;4.25;;;;;;;;;;5028955;28;20029;-76
2022/07/14 04:26:32;;;;;;;7.55;3.65;;;;;;;;;;5029479;28;20013;-76
2022/07/14 04:28:58;;;;;;;10.85;3.65;;;;;;;;;;5020792;28;20037;-76
2022/07/14 04:31:24;;;;;;;4.78;3.40;;;;;;;;;;5025938;28;20021;-77
2022/07/14 04:33:50;;;;;;;4.82;3.13;;;;;;;;;;5026623;28;20017;-76
2022/07/14 04:36:16;;;;;;;6.53;3.75;;;;;;;;;;5028390;28;20033;-75
2022/07/14 04:38:42;;;;;;;7.20;3.40;;;;;;;;;;5028100;28;20057;-75
2022/07/14 04:41:08;;;;;;;9.05;3.40;;;;;;;;;;5031417;28;20108;-75
2022/07/14 04:43:35;;;;;;;9.95;3.60;;;;;;;;;;5028026;28;20029;-75
2022/07/14 04:46:01;;;;;;;9.10;3.90;;;;;;;;;;5027579;28;20140;-75
2022/07/14 04:48:27;;;;;;;7.35;3.38;;;;;;;;;;5028530;28;20026;-75
2022/07/14 04:53:38;;;;;;;9.50;3.92;;;;;;;;;;5028086;28;20036;-75
2022/07/14 04:56:04;;;;;;;11.43;4.28;;;;;;;;;;5023946;28;20113;-75
2022/07/14 04:58:31;;;;;;;11.82;3.88;;;;;;;;;;5025122;28;20543;-77
2022/07/14 05:01:00;;;;;;;8.75;4.60;;;;;;;;;;5022352;28;20402;-76
2022/07/14 05:03:26;;;;;;;7.70;3.92;;;;;;;;;;5021240;28;20061;-75
2022/07/14 05:05:53;;;;;;;6.22;3.85;;;;;;;;;;5022986;28;20018;-77
2022/07/14 05:08:19;;;;;;;11.07;3.40;;;;;;;;;;5026915;28;20029;-77
2022/07/14 05:10:45;;;;;;;8.32;3.30;;;;;;;;;;5028459;28;20022;-76
2022/07/14 05:13:11;;;;;;;7.38;3.40;;;;;;;;;;5027014;28;20013;-77
2022/07/14 05:15:37;;;;;;;6.80;3.13;;;;;;;;;;5027899;28;20021;-76
2022/07/14 05:18:03;;;;;;;8.70;3.45;;;;;;;;;;5027674;28;20033;-75
2022/07/14 05:20:29;;;;;;;6.93;3.42;;;;;;;;;;5023961;28;20053;-76
2022/07/14 05:22:55;;;;;;;10.50;4.72;;;;;;;;;;5028748;28;20031;-75
2022/07/14 05:25:21;;;;;;;14.45;4.95;;;;;;;;;;5031229;28;20116;-75
2022/07/14 05:27:48;;;;;;;6.07;3.33;;;;;;;;;;5028996;28;20041;-76
2022/07/14 05:30:14;;;;;;;5.65;3.25;;;;;;;;;;5027833;28;20106;-76
2022/07/14 05:32:40;;;;;;;8.77;3.33;;;;;;;;;;5027140;28;20479;-75
2022/07/14 05:35:07;;;;;;;8.75;3.58;;;;;;;;;;5027258;28;20448;-76
2022/07/14 05:37:33;;;;;;;7.80;3.58;;;;;;;;;;5027542;28;20048;-77
2022/07/14 05:39:59;;;;;;;5.18;3.30;;;;;;;;;;5028733;28;20028;-75
2022/07/14 05:42:25;;;;;;;9.48;4.13;;;;;;;;;;5027676;28;20057;-74
2022/07/14 05:44:51;;;;;;;10.07;4.07;;;;;;;;;;5027506;28;20528;-75
2022/07/14 05:47:17;;;;;;;8.40;3.55;;;;;;;;;;5027875;28;20024;-76
2022/07/14 05:49:44;;;;;;;7.40;3.60;;;;;;;;;;5022461;28;20079;-74
2022/07/14 05:52:13;;;;;;;8.85;3.50;;;;;;;;;;5026145;28;20022;-76
2022/07/14 05:54:40;;;;;;;6.55;3.38;;;;;;;;;;5024878;28;20029;-75
2022/07/14 05:57:09;;;;;;;10.38;3.50;;;;;;;;;;5026769;28;20083;-76
2022/07/14 05:59:35;;;;;;;5.15;3.13;;;;;;;;;;5027789;28;20357;-76
2022/07/14 06:02:01;;;;;;;9.55;4.15;;;;;;;;;;5020916;28;20131;-75
2022/07/14 06:04:28;;;;;;;9.18;3.58;;;;;;;;;;5019015;28;20025;-75
2022/07/14 06:06:54;;;;;;;11.20;3.70;;;;;;;;;;5026098;28;20056;-75
2022/07/14 06:09:21;;;;;;;7.07;3.63;;;;;;;;;;5028189;28;20071;-75
2022/07/14 06:11:47;;;;;;;7.93;3.33;;;;;;;;;;5024086;28;20032;-76
2022/07/14 06:14:14;;;;;;;6.45;3.42;;;;;;;;;;5025740;28;20112;-76
2022/07/14 06:16:40;;;;;;;6.43;3.08;;;;;;;;;;5025206;28;20514;-75
2022/07/14 06:19:06;;;;;;;6.95;3.10;;;;;;;;;;5028226;28;20323;-75
2022/07/14 06:21:36;;;;;;;9.38;3.70;;;;;;;;;;5024659;28;20026;-76
2022/07/14 06:24:02;;;;;;;8.75;3.60;;;;;;;;;;5026435;28;20087;-74
2022/07/14 06:26:28;;;;;;;7.82;2.78;;;;;;;;;;5024106;28;20476;-75
2022/07/14 06:28:54;;;;;;;10.75;3.15;;;;;;;;;;5026688;28;20037;-77
2022/07/14 06:31:20;;;;;;;9.07;3.50;;;;;;;;;;5020642;28;20041;-76
2022/07/14 06:33:46;;;;;;;10.30;5.13;;;;;;;;;;5025814;28;20528;-76
2022/07/14 06:36:12;;;;;;;10.50;3.40;;;;;;;;;;5023868;28;20033;-75
2022/07/14 06:38:38;;;;;;;7.35;3.33;;;;;;;;;;5022867;28;20109;-75
2022/07/14 06:41:04;;;;;;;6.97;3.65;;;;;;;;;;5022489;28;20541;-77
2022/07/14 06:43:30;;;;;;;7.22;2.90;;;;;;;;;;5035555;28;20025;-76
2022/07/14 06:45:57;;;;;;;5.65;3.10;;;;;;;;;;5028629;28;20032;-75
2022/07/14 06:48:23;;;;;;;7.78;2.90;;;;;;;;;;5021358;28;20396;-76
2022/07/14 06:50:49;;;;;;;5.25;2.90;;;;;;;;;;5026877;28;20055;-75
2022/07/14 06:53:15;;;;;;;5.78;2.80;;;;;;;;;;5024760;28;20542;-74
2022/07/14 06:55:41;;;;;;;6.88;3.30;;;;;;;;;;5018814;28;20053;-76
2022/07/14 06:58:08;;;;;;;7.05;2.95;;;;;;;;;;5027988;28;20033;-75
2022/07/14 07:00:34;;;;;;;6.60;3.45;;;;;;;;;;5025429;28;20037;-75
2022/07/14 07:03:03;;;;;;;5.93;2.95;;;;;;;;;;5037613;28;20025;-74
2022/07/14 07:08:15;;;;;;;7.40;3.42;;;;;;;;;;5024012;28;20079;-75
2022/07/14 07:10:43;;;;;;;5.80;2.92;;;;;;;;;;5029857;28;20024;-74
2022/07/14 07:13:09;;;;;;;10.95;2.95;;;;;;;;;;5029513;28;20029;-75
2022/07/14 07:15:39;;;;;;;6.50;2.50;;;;;;;;;;5037607;28;20026;-75
2022/07/14 07:18:06;;;;;;;8.77;2.95;;;;;;;;;;5036959;28;20075;-76
2022/07/14 07:20:36;;;;;;;5.88;2.30;;;;;;;;;;5043904;28;20041;-75
2022/07/14 07:23:05;;;;;;;7.97;2.42;;;;;;;;;;5036221;28;20030;-74
2022/07/14 07:25:31;;;;;;;6.35;2.95;;;;;;;;;;5042257;28;20025;-74
2022/07/14 07:27:59;;;;;;;8.75;2.75;;;;;;;;;;5042626;28;20040;-74
2022/07/14 07:30:25;;;;;;;10.40;3.50;;;;;;;;;;5034603;28;20874;-74
2022/07/14 07:32:51;;;;;;;6.60;2.20;;;;;;;;;;5030836;28;20017;-74
2022/07/14 07:35:19;;;;;;;4.82;2.53;;;;;;;;;;5028265;28;20623;-74
2022/07/14 07:37:46;;;;;;;4.32;2.58;;;;;;;;;;5030080;28;20033;-75
2022/07/14 07:40:12;;;;;;;7.00;3.28;;;;;;;;;;5029250;28;20443;-75
2022/07/14 07:42:39;;;;;;;4.60;2.00;;;;;;;;;;5028998;28;20029;-75
2022/07/14 07:45:05;;;;;;;6.82;2.20;;;;;;;;;;5030657;28;20379;-75
2022/07/14 07:47:32;;;;;;;5.63;2.20;;;;;;;;;;5029827;28;20025;-74
2022/07/14 07:49:58;;;;;;;6.43;2.30;;;;;;;;;;5032991;28;20072;-74
2022/07/14 07:52:24;;;;;;;7.22;2.30;;;;;;;;;;5030443;28;20104;-75
2022/07/14 07:54:50;;;;;;;7.68;2.95;;;;;;;;;;5021533;28;20010;-76
2022/07/14 07:57:16;;;;;;;3.67;2.50;;;;;;;;;;5027612;28;20033;-74
2022/07/14 07:59:42;;;;;;;4.80;2.28;;;;;;;;;;5030115;28;20033;-75
2022/07/14 08:02:08;;;;;;;7.20;2.80;;;;;;;;;;5028757;28;20030;-75
2022/07/14 08:04:34;;;;;;;8.43;2.92;;;;;;;;;;5028697;28;20467;-76
2022/07/14 08:07:01;;;;;;;5.93;2.75;;;;;;;;;;5027991;28;20436;-76
2022/07/14 08:09:27;;;;;;;6.28;2.38;;;;;;;;;;5030609;28;20062;-75
2022/07/14 08:11:54;;;;;;;5.88;2.42;;;;;;;;;;5021468;28;20021;-75
2022/07/14 08:17:05;;;;;;;4.70;2.75;;;;;;;;;;5028542;28;20040;-76
2022/07/14 08:19:32;;;;;;;8.52;2.40;;;;;;;;;;5030868;28;20483;-75
2022/07/14 08:21:59;;;;;;;5.90;2.40;;;;;;;;;;5026726;28;20037;-75
2022/07/14 08:24:26;;;;;;;4.55;2.30;;;;;;;;;;5033155;28;20037;-75
2022/07/14 08:26:52;;;;;;;4.47;2.40;;;;;;;;;;5028056;28;20059;-75
2022/07/14 08:29:18;;;;;;;6.10;2.28;;;;;;;;;;5027129;28;20017;-75
2022/07/14 08:31:45;;;;;;;4.18;2.13;;;;;;;;;;5027221;28;20501;-75
2022/07/14 08:34:11;;;;;;;6.20;2.10;;;;;;;;;;5029043;28;20795;-75
2022/07/14 08:36:37;;;;;;;6.43;2.22;;;;;;;;;;5032773;28;21074;-74
2022/07/14 08:39:05;;;;;;;6.20;2.60;;;;;;;;;;5032016;28;20026;-75
2022/07/14 08:41:32;;;;;;;5.47;2.75;;;;;;;;;;5025857;28;20040;-75
2022/07/14 08:43:59;;;;;;;7.45;2.25;;;;;;;;;;5025096;28;20087;-75
2022/07/14 08:46:25;;;;;;;4.68;2.15;;;;;;;;;;5024148;28;20068;-75
2022/07/14 08:48:53;;;;;;;4.45;2.53;;;;;;;;;;5029103;28;20028;-75
2022/07/14 08:51:19;;;;;;;6.95;2.30;;;;;;;;;;5031020;28;20021;-75
2022/07/14 08:53:46;;;;;;;3.97;2.22;;;;;;;;;;5034413;28;20597;-76
2022/07/14 08:56:12;;;;;;;9.80;2.72;;;;;;;;;;5034148;28;20064;-76
2022/07/14 08:58:42;;;;;;;6.10;2.63;;;;;;;;;;5026441;28;20033;-76
2022/07/14 09:01:09;;;;;;;5.55;1.95;;;;;;;;;;5026691;28;20036;-75
2022/07/14 09:03:35;;;;;;;3.63;1.88;;;;;;;;;;5032646;28;20538;-75
2022/07/14 09:06:01;;;;;;;4.65;2.15;;;;;;;;;;5028968;28;20032;-75
2022/07/14 09:08:27;;;;;;;3.30;1.88;;;;;;;;;;5028544;28;20025;-76
2022/07/14 09:10:53;;;;;;;4.70;2.25;;;;;;;;;;5025914;28;20485;-75
2022/07/14 09:13:20;;;;;;;3.63;1.92;;;;;;;;;;5030364;28;20506;-76
2022/07/14 09:15:47;;;;;;;6.03;2.28;;;;;;;;;;5029945;28;20030;-75
2022/07/14 09:18:24;;;;;;;6.28;2.95;;;;;;;;;;5024957;28;20088;-76
2022/07/14 09:20:52;;;;;;;3.10;2.05;;;;;;;;;;5026264;28;20495;-76
2022/07/14 09:23:42;;;;;;;4.53;2.00;;;;;;;;;;5026667;28;20033;-74
2022/07/14 09:26:12;;;;;;;5.80;2.45;;;;;;;;;;5025173;28;20249;-76
2022/07/14 09:28:41;;;;;;;4.07;2.25;;;;;;;;;;5027863;28;20069;-76
2022/07/14 09:31:26;;;;;;;5.40;2.10;;;;;;;;;;5023741;28;20092;-75
2022/07/14 09:33:55;;;;;;;5.60;2.35;;;;;;;;;;5023462;28;20026;-75
2022/07/14 09:36:37;;;;;;;7.53;2.50;;;;;;;;;;5023893;28;20041;-76
2022/07/14 09:39:05;;;;;;;3.25;1.85;;;;;;;;;;5017385;28;20093;-76
2022/07/14 09:41:36;;;;;;;5.88;2.03;;;;;;;;;;5021618;28;20056;-75
2022/07/14 09:44:12;;;;;;;7.78;2.00;;;;;;;;;;5027448;28;20026;-73
2022/07/14 09:46:49;;;;;;;4.53;2.70;;;;;;;;;;5019651;28;20026;-74
2022/07/14 09:49:16;;;;;;;5.10;2.03;;;;;;;;;;5027287;28;20025;-74
2022/07/14 09:51:53;;;;;;;5.15;1.90;;;;;;;;;;5026010;28;20025;-75
2022/07/14 09:54:37;;;;;;;2.40;2.20;;;;;;;;;;5021573;28;20149;-74
2022/07/14 09:57:10;;;;;;;1.75;1.60;;;;;;;;;;5025093;28;20056;-74
2022/07/14 09:59:56;;;;;;;2.75;1.95;;;;;;;;;;5026163;28;20030;-75
2022/07/14 10:02:26;;;;;;;3.40;1.90;;;;;;;;;;5023266;28;20476;-74
2022/07/14 10:04:54;;;;;;;4.38;1.90;;;;;;;;;;5026223;28;20029;-74
2022/07/14 10:07:21;;;;;;;4.65;1.88;;;;;;;;;;5023238;28;20035;-74
2022/07/14 10:09:50;;;;;;;4.28;1.92;;;;;;;;;;5022990;28;20020;-74
2022/07/14 10:12:16;;;;;;;3.08;1.58;;;;;;;;;;5024927;28;20168;-75
2022/07/14 10:14:43;;;;;;;4.47;1.90;;;;;;;;;;5021364;28;20036;-74
2022/07/14 10:17:10;;;;;;;5.03;2.45;;;;;;;;;;5025330;28;20104;-75
2022/07/14 10:19:36;;;;;;;2.13;1.63;;;;;;;;;;5021806;28;20441;-75
2022/07/14 10:22:02;;;;;;;3.15;1.70;;;;;;;;;;5023941;28;20033;-74
2022/07/14 10:24:29;;;;;;;3.45;1.83;;;;;;;;;;5022311;28;20026;-74
2022/07/14 10:26:55;;;;;;;2.78;1.70;;;;;;;;;;5027242;28;20030;-75
2022/07/14 10:29:21;;;;;;;4.65;2.10;;;;;;;;;;5026233;28;20103;-74
2022/07/14 10:31:56;;;;;;;4.38;1.98;;;;;;;;;;5025349;28;20170;-75
2022/07/14 10:34:44;;;;;;;2.90;1.80;;;;;;;;;;5025083;28;20108;-74
2022/07/14 10:37:23;;;;;;;3.13;1.75;;;;;;;;;;5026381;28;20271;-74
2022/07/14 10:39:54;;;;;;;5.30;1.80;;;;;;;;;;5027350;28;20052;-75
2022/07/14 10:42:31;;;;;;;2.25;1.90;;;;;;;;;;5023817;28;20040;-74
2022/07/14 10:44:57;;;;;;;4.93;1.70;;;;;;;;;;5021620;28;20080;-74
2022/07/14 10:47:25;;;;;;;3.17;1.70;;;;;;;;;;5025184;28;20031;-75
2022/07/14 10:50:01;;;;;;;2.75;1.70;;;;;;;;;;5026320;28;20022;-75
2022/07/14 10:52:29;;;;;;;5.43;1.50;;;;;;;;;;5026062;28;20440;-76
2022/07/14 10:55:13;;;;;;;3.72;1.88;;;;;;;;;;5022540;28;20042;-75
2022/07/14 10:57:39;;;;;;;3.08;1.50;;;;;;;;;;5029886;28;20060;-73
2022/07/14 11:00:06;;;;;;;2.03;1.60;;;;;;;;;;5030014;28;20029;-74
2022/07/14 11:02:34;;;;;;;2.40;1.85;;;;;;;;;;5030330;28;20025;-73
2022/07/14 11:05:00;;;;;;;3.58;2.13;;;;;;;;;;5024965;28;20036;-73
2022/07/14 11:07:52;;;;;;;2.80;1.50;;;;;;;;;;5029396;28;20242;-73
2022/07/14 11:10:19;;;;;;;3.60;1.80;;;;;;;;;;5027542;28;20117;-74
2022/07/14 11:13:14;;;;;;;3.53;1.90;;;;;;;;;;5028683;28;20040;-74
2022/07/14 11:15:44;;;;;;;4.63;1.70;;;;;;;;;;5024149;28;20033;-74
2022/07/14 11:18:25;;;;;;;3.20;1.52;;;;;;;;;;5028356;28;20023;-74
2022/07/14 11:20:51;;;;;;;4.10;1.80;;;;;;;;;;5028507;28;20465;-74
2022/07/14 11:23:22;;;;;;;3.53;1.70;;;;;;;;;;5027706;28;20026;-75
2022/07/14 11:25:50;;;;;;;4.63;1.80;;;;;;;;;;5025616;28;20029;-74
2022/07/14 11:28:46;;;;;;;4.18;1.90;;;;;;;;;;5026944;28;20368;-74
2022/07/14 11:31:19;;;;;;;4.30;1.83;;;;;;;;;;5021119;28;20025;-74
2022/07/14 11:37:03;;;;;;;1.80;1.70;;;;;;;;;;5028286;28;20059;-75
2022/07/14 11:39:34;;;;;;;2.13;1.40;;;;;;;;;;5027005;28;21786;-74
2022/07/14 11:42:12;;;;;;;2.78;1.83;;;;;;;;;;5030622;28;20033;-74
2022/07/14 11:44:40;;;;;;;3.08;1.60;;;;;;;;;;5029410;28;20029;-75
2022/07/14 11:47:17;;;;;;;3.53;1.70;;;;;;;;;;5031952;28;20033;-74
2022/07/14 11:49:54;;;;;;;1.90;1.77;;;;;;;;;;5025554;28;20100;-74
2022/07/14 11:52:39;;;;;;;3.13;1.65;;;;;;;;;;5028690;28;20030;-74
2022/07/14 11:55:05;;;;;;;;;;;;;;;;;;5022961;28;20485;-75
2022/07/14 11:57:31;;;;;;;3.78;1.88;;;;;;;;;;5030358;28;19913;-74
2022/07/14 12:00:04;;;;;;;2.92;1.70;;;;;;;;;;5027642;28;20026;-74
2022/07/14 12:02:30;;;;;;;4.45;1.80;;;;;;;;;;5028670;28;20226;-74
2022/07/14 12:04:56;;;;;;;2.33;2.13;;;;;;;;;;5027403;28;20032;-75
2022/07/14 12:07:42;;;;;;;3.78;1.73;;;;;;;;;;5029576;28;20108;-75
2022/07/14 12:10:09;;;;;;;2.53;1.63;;;;;;;;;;5027468;28;20606;-75
2022/07/14 12:12:39;;;;;;;2.75;2.45;;;;;;;;;;5026510;28;20040;-74
2022/07/14 12:15:06;;;;;;;3.30;1.65;;;;;;;;;;5026318;28;20021;-75
2022/07/14 12:17:32;;;;;;;2.35;1.67;;;;;;;;;;5029096;28;20018;-74
2022/07/14 12:19:58;;;;;;;2.33;1.70;;;;;;;;;;5027345;28;20029;-74
2022/07/14 12:22:24;;;;;;;2.28;1.60;;;;;;;;;;5027746;28;20060;-74
2022/07/14 12:24:50;;;;;;;3.03;1.80;;;;;;;;;;5026145;28;20108;-74
2022/07/14 12:27:17;;;;;;;2.67;1.70;;;;;;;;;;5026676;28;20041;-73
2022/07/14 12:29:48;;;;;;;3.10;1.67;;;;;;;;;;5028010;28;20028;-73
2022/07/14 12:32:16;;;;;;;2.67;1.70;;;;;;;;;;5029588;28;20025;-73
2022/07/14 12:34:42;;;;;;;2.33;1.63;;;;;;;;;;5027813;28;20081;-74
2022/07/14 12:37:09;;;;;;;3.30;2.05;;;;;;;;;;5026970;28;20047;-73
2022/07/14 12:39:35;;;;;;;3.65;2.30;;;;;;;;;;5028433;28;20025;-74
2022/07/14 12:42:03;;;;;;;3.17;1.83;;;;;;;;;;5029286;28;20082;-74
2022/07/14 12:44:30;;;;;;;3.85;2.03;;;;;;;;;;5028553;28;20077;-74
2022/07/14 12:47:10;;;;;;;1.83;1.70;;;;;;;;;;5023322;28;20112;-74
2022/07/14 12:49:46;;;;;;;2.28;1.63;;;;;;;;;;5022351;28;20025;-74
2022/07/14 12:52:12;;;;;;;3.67;1.80;;;;;;;;;;5028296;28;20049;-74
2022/07/14 12:54:40;;;;;;;4.25;2.28;;;;;;;;;;5025964;28;20022;-75
2022/07/14 12:57:06;;;;;;;4.40;1.83;;;;;;;;;;5023943;28;20434;-75
2022/07/14 12:59:33;;;;;;;1.65;1.55;;;;;;;;;;5026077;28;20587;-73
2022/07/14 13:02:01;;;;;;;1.95;1.80;;;;;;;;;;5028828;28;20030;-75
2022/07/14 13:04:34;;;;;;;3.33;1.67;;;;;;;;;;5027835;28;20021;-74
2022/07/14 13:07:16;;;;;;;1.70;1.60;;;;;;;;;;5024579;28;20378;-74
2022/07/14 13:10:01;;;;;;;1.90;1.70;;;;;;;;;;5022459;28;20427;-74
2022/07/14 13:12:28;;;;;;;2.40;1.65;;;;;;;;;;5025585;28;20552;-75
2022/07/14 13:14:55;;;;;;;3.33;1.77;;;;;;;;;;5023282;28;20381;-75
2022/07/14 13:17:42;;;;;;;2.55;2.00;;;;;;;;;;5025465;28;20017;-76
2022/07/14 13:20:28;;;;;;;4.80;1.60;;;;;;;;;;5020703;28;20104;-75
2022/07/14 13:22:58;;;;;;;2.72;1.60;;;;;;;;;;5018223;28;20067;-75
2022/07/14 13:25:24;;;;;;;2.58;1.52;;;;;;;;;;5026183;28;20417;-74
2022/07/14 13:27:50;;;;;;;3.97;1.85;;;;;;;;;;5027131;28;20048;-75
2022/07/14 13:30:16;;;;;;;2.35;1.50;;;;;;;;;;5029155;28;20025;-75
2022/07/14 13:32:42;;;;;;;4.68;2.08;;;;;;;;;;5025948;28;20021;-75
2022/07/14 13:35:08;;;;;;;2.28;1.65;;;;;;;;;;5026938;28;20025;-76
2022/07/14 13:37:34;;;;;;;4.45;1.90;;;;;;;;;;5025906;28;20184;-75
2022/07/14 13:40:00;;;;;;;4.43;2.15;;;;;;;;;;5026966;28;20030;-74
2022/07/14 13:42:26;;;;;;;4.90;1.90;;;;;;;;;;5025737;28;20048;-74
2022/07/14 13:44:52;;;;;;;2.03;1.70;;;;;;;;;;5029923;28;20407;-74
2022/07/14 13:47:18;;;;;;;2.03;1.50;;;;;;;;;;5027289;28;20052;-74
2022/07/14 13:52:29;;;;;;;2.50;1.55;;;;;;;;;;5025355;28;20533;-74
2022/07/14 13:54:55;;;;;;;2.25;1.77;;;;;;;;;;5021741;28;20559;-75
2022/07/14 13:57:21;;;;;;;4.13;2.30;;;;;;;;;;5036060;28;20123;-75
2022/07/14 13:59:47;;;;;;;2.22;1.90;;;;;;;;;;5043012;28;20076;-75
2022/07/14 14:02:13;;;;;;;2.38;1.60;;;;;;;;;;5041866;28;20133;-74
2022/07/14 14:04:39;;;;;;;2.28;1.50;;;;;;;;;;5035119;28;20029;-74
2022/07/14 14:07:05;;;;;;;2.47;1.67;;;;;;;;;;5034920;28;20089;-74
2022/07/14 14:09:31;;;;;;;1.70;1.60;;;;;;;;;;5028398;28;20061;-74
2022/07/14 14:11:58;;;;;;;1.73;1.60;;;;;;;;;;5027866;28;20412;-74
2022/07/14 14:14:24;;;;;;;3.00;1.75;;;;;;;;;;5021081;28;20037;-75
2022/07/14 14:16:50;;;;;;;3.80;1.70;;;;;;;;;;5025425;28;20014;-74
2022/07/14 14:19:18;;;;;;;1.92;1.70;;;;;;;;;;5026993;28;20041;-75
2022/07/14 14:21:45;;;;;;;2.10;1.70;;;;;;;;;;5025373;28;20021;-75
2022/07/14 14:24:11;;;;;;;1.60;1.50;;;;;;;;;;5023049;28;20025;-75
2022/07/14 14:26:37;;;;;;;2.58;1.95;;;;;;;;;;5025997;28;20061;-74
2022/07/14 14:29:03;;;;;;;1.48;1.38;;;;;;;;;;5030875;28;20049;-75
2022/07/14 14:31:29;;;;;;;4.28;1.90;;;;;;;;;;5030287;28;20172;-75
2022/07/14 14:33:55;;;;;;;2.00;1.60;;;;;;;;;;5025615;28;20482;-74
2022/07/14 14:36:21;;;;;;;2.05;1.60;;;;;;;;;;5031241;28;20101;-74
2022/07/14 14:38:47;;;;;;;3.08;1.60;;;;;;;;;;5027834;28;20041;-76
2022/07/14 14:41:13;;;;;;;2.35;1.80;;;;;;;;;;5031679;28;20029;-75
2022/07/14 14:43:40;;;;;;;3.28;1.65;;;;;;;;;;5026550;28;20061;-75
2022/07/14 14:46:06;;;;;;;3.25;1.55;;;;;;;;;;5031682;28;20506;-74
2022/07/14 14:48:32;;;;;;;3.97;1.80;;;;;;;;;;5029119;28;20562;-74
2022/07/14 14:50:58;;;;;;;2.83;1.70;;;;;;;;;;5028177;28;20576;-75
2022/07/14 14:53:25;;;;;;;3.17;1.75;;;;;;;;;;5028846;28;20083;-75
2022/07/14 14:55:51;;;;;;;3.00;1.80;;;;;;;;;;5028690;28;20087;-74
2022/07/14 14:58:17;;;;;;;2.05;1.60;;;;;;;;;;5030123;28;20064;-74
2022/07/14 15:00:43;;;;;;;2.85;1.60;;;;;;;;;;5031073;28;20044;-75
2022/07/14 15:03:10;;;;;;;2.70;1.67;;;;;;;;;;5031907;28;20438;-74
2022/07/14 15:05:36;;;;;;;1.90;1.70;;;;;;;;;;5030820;28;20128;-75